Thompson, Canada
Current Conditions -  °F | °C
As of 8:00 PM on Monday 24 Nov 2014 (Local Time) from CYTH Reporting Station
Scattered Clouds Scattered Clouds  
Wind Chill: -19°   Ceiling: Unl
Heat Index: -2°   Visibility: 15mi
Dew Point: -9°   Wind: 10mph
Humidity: 71%   Direction: 350°N
Pressure: 29.89"   Gusts: NA
Location:  55.74°N, 97.85°W
Report Text: CYTH 250200Z 35009KT 15SM FEW015 SCT040 M19/M23 A2989 RMK SC1SC2 SLP152
Loading
Personal Weather Stations






























Interactive Weather Map New forecast layout! Learn more

10-Day Weather Forecast

Advertisements
Track Severe Weather on mobile